Plato — 8PRX — position and weather

sailwx.info

Track history (hours):
 
Tides and Currents Weather Stations Pressure Air Temp Water Temp Dewpoint Dewpoint Depression Visibility Wind Speed Wind Dir Waves Ship Positions

Plato

Last reported at 2014-Jul-23 17:24 UTC. Time now 2014-Jul-23 18:08 UTC.
Position N 51°56' E 004°11'.

Length 88 m; draft 3.2 m.

Type: Ship. MMSI: 314189000.

Date/timePositionNaut miles runAvg speedWind from/ knotsBaromVisibWave heightAir tempDewpointWater temp
2014-Jul-23 17:24N 51°56' E 004°11'0 0.0
2014-Jul-23 16:33N 51°56' E 004°11'0 0.0
2014-Jul-23 15:08N 51°56' E 004°11'0 0.0
2014-Jul-23 14:13N 51°56' E 004°11'0 0.0
2014-Jul-23 13:31N 51°56' E 004°11'0 0.0
2014-Jul-23 12:33N 51°56' E 004°11'4 3.8
2014-Jul-23 11:33N 51°58' E 004°06'8 8.5
2014-Jul-23 10:33N 52°01' E 003°53'75 8.0
2014-Jul-23 01:06N 52°45' E 002°13'4 7.5
2014-Jul-23 00:33N 52°47' E 002°08'7 7.2
2014-Jul-22 23:33N 52°53' E 001°59'7 7.0
2014-Jul-22 22:33N 52°56' E 001°50'7 6.8
2014-Jul-22 21:33N 53°00' E 001°40'8 7.5
2014-Jul-22 20:33N 53°03' E 001°28'8 8.0
2014-Jul-22 19:33N 53°04' E 001°15'  
2014-Jul-19 03:15N 52°56' E 000°15'0 0.0
2014-Jul-19 01:32N 52°56' E 000°15'  
2014-Jul-15 05:29N 53°04' E 001°09'8 8.2
2014-Jul-15 04:33N 53°03' E 001°21'9 9.0
2014-Jul-15 03:33N 53°01' E 001°36'9 9.0
2014-Jul-15 02:33N 52°58' E 001°50'47 6.7
2014-Jul-14 19:33N 52°11' E 001°53'8 7.8
2014-Jul-14 18:33N 52°04' E 001°51'1010.1
2014-Jul-14 17:33N 51°54' E 001°48'1110.8
2014-Jul-14 16:33N 51°43' E 001°49'1110.8
2014-Jul-14 15:33N 51°32' E 001°47'1211.6
2014-Jul-14 14:33N 51°21' E 001°42'1211.7
2014-Jul-14 13:33N 51°10' E 001°37'9 9.4
2014-Jul-14 12:33N 51°01' E 001°33'1110.9
2014-Jul-14 11:32N 50°51' E 001°25'9 9.6
2014-Jul-14 10:33N 50°42' E 001°20'19 9.3
2014-Jul-14 08:29N 50°30' E 000°57'17 8.6
2014-Jul-14 06:29N 50°25' E 000°31'  
Track history (hours):
 
Tides and Currents Weather Stations Pressure Air Temp Water Temp Dewpoint Dewpoint Depression Visibility Wind Speed Wind Dir Waves Ship Positions

Plato

Last reported at 2014-Jul-23 17:24 UTC. Time now 2014-Jul-23 18:08 UTC.
Position N 51°56' E 004°11'.

Length 88 m; draft 3.2 m.

Type: Ship. MMSI: 314189000.

Date/timePositionNaut miles runAvg speedWind from/ knotsBaromVisibWave heightAir tempDewpointWater temp
2014-Jul-23 17:24N 51°56' E 004°11'0 0.0
2014-Jul-23 16:33N 51°56' E 004°11'0 0.0
2014-Jul-23 15:08N 51°56' E 004°11'0 0.0
2014-Jul-23 14:13N 51°56' E 004°11'0 0.0
2014-Jul-23 13:31N 51°56' E 004°11'0 0.0
2014-Jul-23 12:33N 51°56' E 004°11'4 3.8
2014-Jul-23 11:33N 51°58' E 004°06'8 8.5
2014-Jul-23 10:33N 52°01' E 003°53'75 8.0
2014-Jul-23 01:06N 52°45' E 002°13'4 7.5
2014-Jul-23 00:33N 52°47' E 002°08'7 7.2
2014-Jul-22 23:33N 52°53' E 001°59'7 7.0
2014-Jul-22 22:33N 52°56' E 001°50'7 6.8
2014-Jul-22 21:33N 53°00' E 001°40'8 7.5
2014-Jul-22 20:33N 53°03' E 001°28'8 8.0
2014-Jul-22 19:33N 53°04' E 001°15'  
2014-Jul-19 03:15N 52°56' E 000°15'0 0.0
2014-Jul-19 01:32N 52°56' E 000°15'  
2014-Jul-15 05:29N 53°04' E 001°09'8 8.2
2014-Jul-15 04:33N 53°03' E 001°21'9 9.0
2014-Jul-15 03:33N 53°01' E 001°36'9 9.0
2014-Jul-15 02:33N 52°58' E 001°50'47 6.7
2014-Jul-14 19:33N 52°11' E 001°53'8 7.8
2014-Jul-14 18:33N 52°04' E 001°51'1010.1
2014-Jul-14 17:33N 51°54' E 001°48'1110.8
2014-Jul-14 16:33N 51°43' E 001°49'1110.8
2014-Jul-14 15:33N 51°32' E 001°47'1211.6
2014-Jul-14 14:33N 51°21' E 001°42'1211.7
2014-Jul-14 13:33N 51°10' E 001°37'9 9.4
2014-Jul-14 12:33N 51°01' E 001°33'1110.9
2014-Jul-14 11:32N 50°51' E 001°25'9 9.6
2014-Jul-14 10:33N 50°42' E 001°20'19 9.3
2014-Jul-14 08:29N 50°30' E 000°57'17 8.6
2014-Jul-14 06:29N 50°25' E 000°31'  

Dump ship's entire track history